createdAt,value
2023-04-03T00:01:39.432Z,100.00
2023-04-03T00:04:08.670Z,100.00
2023-04-03T00:06:37.302Z,100.00
2023-04-03T00:09:07.652Z,100.00
2023-04-03T00:11:36.723Z,100.00
2023-04-03T00:14:05.463Z,100.00
2023-04-03T00:16:34.246Z,100.00
2023-04-03T00:19:02.990Z,100.00
2023-04-03T00:21:31.690Z,100.00
2023-04-03T00:24:00.297Z,100.00
2023-04-03T00:26:28.858Z,100.00
2023-04-03T00:28:57.445Z,100.00
2023-04-03T00:31:26.187Z,100.00
2023-04-03T00:33:54.787Z,100.00
2023-04-03T00:36:23.525Z,100.00
2023-04-03T00:38:53.840Z,100.00
2023-04-03T00:41:22.575Z,100.00
2023-04-03T00:43:51.231Z,100.00
2023-04-03T00:46:19.966Z,100.00
2023-04-03T00:48:50.498Z,100.00
2023-04-03T00:51:25.566Z,100.00
2023-04-03T00:53:57.640Z,100.00
2023-04-03T00:56:28.880Z,100.00
2023-04-03T00:59:01.905Z,100.00
2023-04-03T01:01:35.366Z,100.00
2023-04-03T01:04:05.226Z,100.00
2023-04-03T01:06:37.142Z,100.00
2023-04-03T01:09:07.165Z,100.00
2023-04-03T01:11:35.945Z,100.00
2023-04-03T01:14:07.531Z,100.00
2023-04-03T01:16:36.663Z,100.00
2023-04-03T01:19:07.444Z,100.00
2023-04-03T01:21:42.107Z,100.00
2023-04-03T01:24:19.854Z,100.00
2023-04-03T01:26:48.576Z,100.00
2023-04-03T01:29:17.266Z,100.00
2023-04-03T01:31:54.845Z,100.00
2023-04-03T01:34:23.954Z,100.00
2023-04-03T01:36:53.760Z,100.00
2023-04-03T01:39:22.692Z,100.00
2023-04-03T01:41:51.908Z,100.00
2023-04-03T01:44:20.605Z,100.00
2023-04-03T01:46:49.360Z,100.00
2023-04-03T01:49:18.127Z,100.00
2023-04-03T01:51:46.756Z,100.00
2023-04-03T01:54:15.485Z,100.00
2023-04-03T01:56:44.361Z,100.00
2023-04-03T01:59:13.024Z,100.00
2023-04-03T02:01:41.899Z,100.00
2023-04-03T02:04:10.765Z,100.00
2023-04-03T02:06:39.460Z,100.00
2023-04-03T02:09:08.136Z,100.00
2023-04-03T02:11:36.857Z,100.00
2023-04-03T02:14:05.594Z,100.00
2023-04-03T02:16:34.440Z,100.00
2023-04-03T02:19:03.166Z,100.00
2023-04-03T02:21:31.802Z,100.00
2023-04-03T02:24:00.629Z,100.00
2023-04-03T02:26:29.282Z,100.00
2023-04-03T02:28:58.004Z,100.00
2023-04-03T02:31:26.812Z,100.00
2023-04-03T02:33:55.787Z,100.00
2023-04-03T02:36:24.527Z,100.00
2023-04-03T02:38:53.102Z,100.00
2023-04-03T02:41:22.098Z,100.00
2023-04-03T02:43:50.915Z,100.00
2023-04-03T02:46:19.664Z,100.00
2023-04-03T02:48:48.556Z,100.00
2023-04-03T02:51:17.292Z,100.00
2023-04-03T02:53:46.061Z,100.00
2023-04-03T02:56:14.837Z,100.00
2023-04-03T02:58:43.524Z,100.00
2023-04-03T03:01:13.907Z,100.00
2023-04-03T03:03:42.619Z,100.00
2023-04-03T03:06:14.247Z,100.00
2023-04-03T03:08:43.621Z,100.00
2023-04-03T03:11:17.146Z,100.00
2023-04-03T03:13:48.562Z,100.00
2023-04-03T03:16:22.718Z,100.00
2023-04-03T03:18:51.416Z,100.00
2023-04-03T03:21:23.221Z,100.00
2023-04-03T03:23:51.962Z,100.00
2023-04-03T03:26:20.662Z,100.00
2023-04-03T03:28:50.423Z,100.00
2023-04-03T03:31:19.031Z,100.00
2023-04-03T03:33:48.211Z,100.00
2023-04-03T03:36:17.072Z,100.00
2023-04-03T03:38:45.734Z,100.00
2023-04-03T03:41:14.312Z,100.00
2023-04-03T03:43:42.984Z,100.00
2023-04-03T03:46:11.676Z,100.00
2023-04-03T03:48:40.527Z,100.00
2023-04-03T03:51:09.326Z,100.00
2023-04-03T03:53:38.046Z,100.00
2023-04-03T03:56:09.850Z,100.00
2023-04-03T03:58:38.566Z,100.00
2023-04-03T04:01:08.490Z,100.00
2023-04-03T04:03:39.002Z,100.00
2023-04-03T04:06:13.997Z,100.00
2023-04-03T04:14:34.690Z,100.00
2023-04-03T04:17:03.704Z,100.00
2023-04-03T04:19:32.571Z,100.00
2023-04-03T04:22:03.912Z,100.00
2023-04-03T04:24:34.347Z,100.00
2023-04-03T04:27:03.310Z,100.00
2023-04-03T04:29:37.989Z,100.00
2023-04-03T04:32:07.402Z,100.00
2023-04-03T04:34:43.431Z,100.00
2023-04-03T04:37:13.725Z,100.00
2023-04-03T04:39:44.141Z,100.00
2023-04-03T04:42:17.439Z,100.00
2023-04-03T04:44:46.406Z,100.00
2023-04-03T04:47:15.202Z,100.00
2023-04-03T04:49:45.580Z,100.00
2023-04-03T04:52:14.320Z,100.00
2023-04-03T04:54:42.992Z,100.00
2023-04-03T04:57:12.017Z,100.00
2023-04-03T04:59:41.015Z,100.00
2023-04-03T05:02:09.728Z,100.00
2023-04-03T05:04:40.562Z,100.00
2023-04-03T05:07:09.024Z,100.00
2023-04-03T05:09:37.669Z,100.00
2023-04-03T05:12:06.458Z,100.00
2023-04-03T05:14:35.128Z,100.00
2023-04-03T05:17:03.549Z,100.00
2023-04-03T05:19:32.159Z,100.00
2023-04-03T05:22:01.162Z,100.00
2023-04-03T05:24:29.922Z,100.00
2023-04-03T05:26:58.696Z,100.00
2023-04-03T05:29:27.359Z,100.00
2023-04-03T05:31:56.552Z,100.00
2023-04-03T05:34:25.389Z,100.00
2023-04-03T05:36:55.639Z,100.00
2023-04-03T05:39:25.335Z,100.00
2023-04-03T05:41:56.908Z,100.00
2023-04-03T05:44:27.331Z,100.00
2023-04-03T05:47:04.413Z,100.00
2023-04-03T05:49:35.971Z,100.00
2023-04-03T05:52:04.675Z,100.00
2023-04-03T05:54:33.740Z,100.00
2023-04-03T05:57:02.537Z,100.00
2023-04-03T05:59:31.221Z,100.00
2023-04-03T06:01:59.887Z,100.00
2023-04-03T06:04:31.737Z,100.00
2023-04-03T06:07:26.242Z,100.00
2023-04-03T06:09:58.193Z,100.00
2023-04-03T06:12:27.106Z,100.00
2023-04-03T06:14:57.433Z,100.00
2023-04-03T06:17:26.438Z,100.00
2023-04-03T06:19:59.707Z,100.00
2023-04-03T06:22:32.219Z,100.00
2023-04-03T06:25:01.003Z,100.00
2023-04-03T06:27:30.132Z,100.00
2023-04-03T06:30:02.022Z,100.00
2023-04-03T06:32:31.084Z,100.00
2023-04-03T06:35:01.779Z,100.00
2023-04-03T06:37:31.848Z,100.00
2023-04-03T06:40:02.853Z,100.00
2023-04-03T06:42:31.551Z,100.00
2023-04-03T06:45:04.525Z,100.00
2023-04-03T06:47:33.469Z,100.00
2023-04-03T06:50:05.324Z,99.61
2023-04-03T06:52:34.205Z,90.84
2023-04-03T06:55:02.953Z,89.75
2023-04-03T06:57:32.482Z,89.22
2023-04-03T07:00:10.588Z,83.97
2023-04-03T07:02:43.874Z,79.69
2023-04-03T07:05:14.290Z,76.75
2023-04-03T07:07:43.100Z,81.20
2023-04-03T07:16:43.089Z,78.23
2023-04-03T07:19:12.085Z,76.78
2023-04-03T07:21:51.663Z,73.93
2023-04-03T07:27:09.809Z,70.56
2023-04-03T07:29:38.833Z,67.20
2023-04-03T07:32:13.181Z,67.75
2023-04-03T07:34:43.821Z,66.47
2023-04-03T07:37:13.866Z,65.28
2023-04-03T07:39:46.217Z,67.36
2023-04-03T07:42:15.119Z,63.47
2023-04-03T07:44:43.883Z,65.43
2023-04-03T07:47:23.035Z,64.44
2023-04-03T07:49:48.271Z,62.46
2023-04-03T07:52:17.363Z,65.01
2023-04-03T08:08:13.021Z,65.83
2023-04-03T08:10:56.298Z,65.54
2023-04-03T08:13:33.357Z,65.74
2023-04-03T08:16:22.326Z,66.63
2023-04-03T08:18:53.939Z,65.05
2023-04-03T08:21:23.284Z,62.15
2023-04-03T08:23:52.932Z,62.42
2023-04-03T08:26:23.212Z,59.69
2023-04-03T08:28:51.973Z,57.88
2023-04-03T08:31:21.765Z,58.93
2023-04-03T08:33:50.640Z,57.73
2023-04-03T08:36:25.101Z,59.10
2023-04-03T08:38:54.329Z,57.72
2023-04-03T08:41:41.099Z,56.53
2023-04-03T08:44:32.168Z,55.90
2023-04-03T08:47:29.238Z,57.82
2023-04-03T08:50:01.491Z,55.80
2023-04-03T08:55:59.701Z,54.10
2023-04-03T08:58:34.077Z,54.20
2023-04-03T09:01:11.655Z,54.07
2023-04-03T09:03:46.229Z,53.80
2023-04-03T09:06:23.664Z,52.40
2023-04-03T09:09:17.932Z,52.23
2023-04-03T09:12:07.512Z,50.60
2023-04-03T09:14:56.174Z,50.48
2023-04-03T09:17:36.690Z,48.06
2023-04-03T09:20:12.004Z,48.30
2023-04-03T09:22:51.415Z,48.45
2023-04-03T09:25:30.544Z,48.04
2023-04-03T09:27:59.438Z,47.90
2023-04-03T09:30:31.553Z,48.16
2023-04-03T09:33:00.284Z,49.05
2023-04-03T09:35:47.462Z,49.52
2023-04-03T09:38:17.273Z,50.17
2023-04-03T09:40:51.112Z,51.72
2023-04-03T09:43:22.867Z,51.39
2023-04-03T09:46:07.436Z,49.30
2023-04-03T09:48:39.830Z,50.29
2023-04-03T09:51:11.653Z,48.20
2023-04-03T09:53:43.470Z,47.30
2023-04-03T09:56:23.347Z,47.52
2023-04-03T09:59:27.449Z,47.80
2023-04-03T10:02:44.860Z,47.67
2023-04-03T10:05:37.352Z,47.31
2023-04-03T10:08:55.053Z,47.59
2023-04-03T10:11:23.119Z,48.24
2023-04-03T10:13:58.666Z,49.08
2023-04-03T10:16:33.863Z,48.92
2023-04-03T10:19:27.221Z,50.04
2023-04-03T10:22:10.967Z,50.99
2023-04-03T10:25:05.668Z,52.22
2023-04-03T10:27:43.402Z,53.28
2023-04-03T10:30:23.822Z,53.84
2023-04-03T10:33:07.363Z,53.11
2023-04-03T10:36:01.633Z,53.42
2023-04-03T10:38:42.433Z,54.24
2023-04-03T10:41:21.061Z,54.53
2023-04-03T10:44:08.553Z,53.83
2023-04-03T10:47:09.541Z,52.49
2023-04-03T10:50:02.302Z,51.59
2023-04-03T10:52:40.819Z,51.93
2023-04-03T10:55:32.135Z,52.01
2023-04-03T10:58:03.165Z,52.91
2023-04-03T11:00:50.230Z,53.24
2023-04-03T11:03:32.364Z,53.64
2023-04-03T11:06:06.245Z,54.23
2023-04-03T11:08:59.399Z,54.69
2023-04-03T11:11:35.802Z,58.55
2023-04-03T11:14:17.355Z,56.39
2023-04-03T11:16:54.370Z,59.24
2023-04-03T11:19:37.513Z,61.81
2023-04-03T11:22:14.999Z,63.93
2023-04-03T11:24:47.175Z,67.75
2023-04-03T11:27:23.903Z,71.75
2023-04-03T11:29:55.393Z,73.72
2023-04-03T11:32:27.396Z,80.16
2023-04-03T11:35:01.810Z,82.24
2023-04-03T11:37:39.470Z,85.32
2023-04-03T11:40:20.627Z,82.17
2023-04-03T11:42:52.012Z,85.21
2023-04-03T11:45:39.717Z,87.79
2023-04-03T11:48:34.265Z,88.44
2023-04-03T11:51:22.294Z,94.37
2023-04-03T11:53:52.937Z,92.34
2023-04-03T11:56:31.825Z,91.91
2023-04-03T11:59:19.414Z,100.00
2023-04-03T12:01:58.727Z,100.00
2023-04-03T12:04:29.914Z,100.00
2023-04-03T12:07:21.348Z,100.00
2023-04-03T12:09:53.011Z,100.00
2023-04-03T12:12:33.679Z,100.00
2023-04-03T12:15:22.122Z,100.00
2023-04-03T12:17:53.773Z,100.00
2023-04-03T12:20:57.591Z,100.00
2023-04-03T12:23:40.896Z,100.00
2023-04-03T12:26:53.816Z,100.00
2023-04-03T12:29:31.932Z,100.00
2023-04-03T12:32:12.186Z,100.00
2023-04-03T12:35:09.622Z,100.00
2023-04-03T12:37:59.020Z,100.00
2023-04-03T12:40:46.342Z,100.00
2023-04-03T12:43:39.349Z,100.00
2023-04-03T12:46:12.890Z,100.00
2023-04-03T13:04:47.151Z,100.00
2023-04-03T13:07:34.760Z,100.00
2023-04-03T13:10:08.178Z,100.00
2023-04-03T13:15:34.238Z,100.00
2023-04-03T13:18:03.339Z,100.00
2023-04-03T13:20:39.916Z,100.00
2023-04-03T13:23:13.075Z,100.00
2023-04-03T13:25:45.235Z,100.00
2023-04-03T13:28:17.312Z,100.00
2023-04-03T13:31:03.493Z,100.00
2023-04-03T13:33:37.011Z,100.00
2023-04-03T13:36:20.415Z,100.00
2023-04-03T13:39:09.899Z,100.00
2023-04-03T13:41:42.409Z,100.00
2023-04-03T13:44:29.200Z,100.00
2023-04-03T13:47:00.388Z,100.00
2023-04-03T13:49:39.417Z,100.00
2023-04-03T13:52:32.211Z,100.00
2023-04-03T13:55:05.792Z,100.00
2023-04-03T13:57:34.067Z,100.00
2023-04-03T14:00:04.538Z,100.00
2023-04-03T14:02:35.604Z,100.00
2023-04-03T14:05:22.193Z,100.00
2023-04-03T14:08:00.434Z,100.00
2023-04-03T14:10:29.159Z,100.00
2023-04-03T14:12:57.883Z,100.00
2023-04-03T14:15:29.731Z,100.00
2023-04-03T14:18:00.418Z,100.00
2023-04-03T14:20:30.292Z,100.00
2023-04-03T14:23:02.130Z,100.00
2023-04-03T14:25:32.528Z,100.00
2023-04-03T14:28:02.139Z,100.00
2023-04-03T14:30:33.956Z,100.00
2023-04-03T14:33:03.777Z,100.00
2023-04-03T14:35:32.534Z,100.00
2023-04-03T14:38:01.282Z,100.00
2023-04-03T14:40:30.291Z,100.00
2023-04-03T14:42:59.569Z,100.00
2023-04-03T14:45:31.749Z,100.00
2023-04-03T14:48:01.623Z,100.00
2023-04-03T14:50:34.714Z,100.00
2023-04-03T14:53:03.540Z,100.00
2023-04-03T14:55:33.023Z,100.00
2023-04-03T14:58:01.754Z,100.00
2023-04-03T15:00:31.038Z,100.00
2023-04-03T15:02:59.940Z,100.00
2023-04-03T15:05:28.722Z,100.00
2023-04-03T15:07:59.052Z,100.00
2023-04-03T15:10:30.848Z,100.00
2023-04-03T15:12:59.651Z,100.00
2023-04-03T15:15:31.436Z,100.00
2023-04-03T15:18:00.454Z,100.00
2023-04-03T15:20:31.992Z,100.00
2023-04-03T15:23:03.971Z,100.00
2023-04-03T15:25:36.766Z,100.00
2023-04-03T15:28:06.014Z,100.00
2023-04-03T15:30:46.925Z,100.00
2023-04-03T15:36:22.956Z,100.00
2023-04-03T15:38:39.881Z,100.00
2023-04-03T15:41:08.659Z,100.00
2023-04-03T15:43:39.110Z,100.00
2023-04-03T15:46:07.914Z,100.00
2023-04-03T15:48:44.813Z,100.00
2023-04-03T15:51:26.759Z,100.00
2023-04-03T15:59:54.894Z,100.00
2023-04-03T16:02:25.662Z,100.00
2023-04-03T16:07:06.394Z,100.00
2023-04-03T16:08:45.494Z,100.00
2023-04-03T16:11:37.225Z,100.00
2023-04-03T16:14:08.399Z,100.00
2023-04-03T16:16:38.822Z,100.00
2023-04-03T16:19:08.106Z,100.00
2023-04-03T16:21:36.877Z,100.00
2023-04-03T16:24:07.516Z,100.00
2023-04-03T16:29:40.861Z,100.00
2023-04-03T16:32:11.126Z,100.00
2023-04-03T16:34:42.413Z,100.00
2023-04-03T16:37:13.276Z,100.00
2023-04-03T16:39:45.454Z,100.00
2023-04-03T16:42:14.172Z,100.00
2023-04-03T16:44:43.363Z,100.00
2023-04-03T16:47:14.238Z,100.00
2023-04-03T16:49:46.195Z,100.00
2023-04-03T16:52:20.417Z,100.00
2023-04-03T16:54:49.198Z,100.00
2023-04-03T16:57:23.131Z,100.00
2023-04-03T16:59:53.260Z,100.00
2023-04-03T17:02:24.865Z,100.00
2023-04-03T17:04:57.432Z,100.00
2023-04-03T17:07:27.763Z,100.00
2023-04-03T17:09:56.966Z,100.00
2023-04-03T17:12:27.325Z,100.00
2023-04-03T17:14:57.766Z,100.00
2023-04-03T17:17:27.603Z,100.00
2023-04-03T17:19:57.559Z,100.00
2023-04-03T17:22:26.549Z,100.00
2023-04-03T17:24:55.522Z,100.00
2023-04-03T17:27:24.264Z,100.00
2023-04-03T17:29:53.047Z,100.00
2023-04-03T17:32:21.832Z,100.00
2023-04-03T17:35:01.228Z,100.00
2023-04-03T17:37:34.458Z,100.00
2023-04-03T17:40:16.721Z,100.00
2023-04-03T17:42:51.998Z,100.00
2023-04-03T17:45:20.794Z,100.00
2023-04-03T17:47:50.260Z,100.00
2023-04-03T17:50:19.805Z,100.00
2023-04-03T17:52:48.726Z,100.00
2023-04-03T17:55:17.942Z,100.00
2023-04-03T17:57:46.763Z,100.00
2023-04-03T18:00:16.538Z,100.00
2023-04-03T18:02:45.363Z,100.00
2023-04-03T18:05:14.102Z,100.00
2023-04-03T18:07:43.008Z,100.00
2023-04-03T18:10:12.213Z,100.00
2023-04-03T18:12:42.524Z,100.00
2023-04-03T18:15:12.348Z,100.00
2023-04-03T18:17:41.052Z,100.00
2023-04-03T18:20:11.697Z,100.00
2023-04-03T18:22:40.463Z,100.00
2023-04-03T18:25:11.661Z,100.00
2023-04-03T18:27:41.201Z,100.00
2023-04-03T18:30:13.928Z,100.00
2023-04-03T18:32:43.140Z,100.00
2023-04-03T18:35:12.456Z,100.00
2023-04-03T18:37:41.359Z,100.00
2023-04-03T18:40:10.958Z,100.00
2023-04-03T18:42:41.999Z,100.00
2023-04-03T18:45:15.744Z,100.00
2023-04-03T18:47:48.046Z,100.00
2023-04-03T18:50:17.518Z,100.00
2023-04-03T18:52:47.877Z,100.00
2023-04-03T18:55:21.422Z,100.00
2023-04-03T18:57:53.716Z,100.00
2023-04-03T19:00:26.071Z,100.00
2023-04-03T19:02:55.435Z,100.00
2023-04-03T19:05:28.551Z,100.00
2023-04-03T19:08:04.245Z,100.00
2023-04-03T19:10:32.986Z,100.00
2023-04-03T19:13:03.323Z,100.00
2023-04-03T19:15:35.725Z,100.00
2023-04-03T19:18:04.477Z,100.00
2023-04-03T19:20:33.308Z,100.00
2023-04-03T19:23:02.048Z,100.00
2023-04-03T19:25:30.863Z,100.00
2023-04-03T19:28:00.041Z,100.00
2023-04-03T19:30:29.060Z,100.00
2023-04-03T19:33:00.678Z,100.00
2023-04-03T19:35:29.641Z,100.00
2023-04-03T19:37:59.924Z,100.00
2023-04-03T19:40:35.718Z,100.00
2023-04-03T19:43:05.254Z,100.00
2023-04-03T19:45:34.095Z,100.00
2023-04-03T19:48:02.965Z,100.00
2023-04-03T19:50:32.971Z,100.00
2023-04-03T19:53:02.349Z,100.00
2023-04-03T19:55:31.691Z,100.00
2023-04-03T19:58:10.339Z,100.00
2023-04-03T20:04:19.734Z,100.00
2023-04-03T20:06:49.853Z,100.00
2023-04-03T20:09:18.762Z,100.00
2023-04-03T20:11:47.570Z,100.00
2023-04-03T20:14:18.392Z,100.00
2023-04-03T20:16:47.541Z,100.00
2023-04-03T20:19:19.563Z,100.00
2023-04-03T20:21:49.178Z,100.00
2023-04-03T20:24:21.245Z,100.00
2023-04-03T20:26:53.568Z,100.00
2023-04-03T20:29:23.814Z,100.00
2023-04-03T20:31:59.498Z,100.00
2023-04-03T20:34:31.139Z,100.00
2023-04-03T20:37:00.377Z,100.00
2023-04-03T20:39:31.459Z,100.00
2023-04-03T20:42:06.380Z,100.00
2023-04-03T20:44:41.702Z,100.00
2023-04-03T20:50:45.841Z,100.00
2023-04-03T20:53:44.540Z,100.00
2023-04-03T20:56:16.887Z,100.00
2023-04-03T21:02:38.867Z,100.00
2023-04-03T21:12:28.698Z,100.00
2023-04-03T21:15:26.287Z,100.00
2023-04-03T21:18:17.269Z,100.00
2023-04-03T21:20:56.679Z,100.00
2023-04-03T21:23:28.655Z,100.00
2023-04-03T21:25:58.224Z,100.00
2023-04-03T21:28:27.654Z,100.00
2023-04-03T21:30:56.651Z,100.00
2023-04-03T21:33:25.898Z,100.00
2023-04-03T21:35:56.389Z,100.00
2023-04-03T21:38:27.388Z,100.00
2023-04-03T21:40:59.568Z,100.00
2023-04-03T21:43:39.130Z,100.00
2023-04-03T21:46:08.119Z,100.00
2023-04-03T21:48:37.822Z,100.00
2023-04-03T21:51:07.112Z,100.00
2023-04-03T21:53:36.216Z,100.00
2023-04-03T21:56:05.106Z,100.00
2023-04-03T21:58:34.738Z,100.00
2023-04-03T22:01:16.466Z,100.00
2023-04-03T22:03:46.963Z,100.00
2023-04-03T22:06:17.476Z,100.00
2023-04-03T22:08:50.301Z,100.00
2023-04-03T22:11:21.350Z,100.00
2023-04-03T22:14:01.150Z,100.00
2023-04-03T22:16:30.001Z,100.00
2023-04-03T22:19:01.453Z,100.00
2023-04-03T22:21:30.119Z,100.00
2023-04-03T22:23:59.379Z,100.00
2023-04-03T22:26:35.035Z,100.00
2023-04-03T22:29:03.972Z,100.00
2023-04-03T22:31:32.893Z,100.00
2023-04-03T22:34:03.214Z,100.00
2023-04-03T22:36:31.922Z,100.00
2023-04-03T22:39:05.989Z,100.00
2023-04-03T22:41:35.294Z,100.00
2023-04-03T22:44:03.990Z,100.00
2023-04-03T22:46:32.856Z,100.00
2023-04-03T22:49:01.646Z,100.00
2023-04-03T22:51:30.475Z,100.00
2023-04-03T22:53:59.225Z,100.00
2023-04-03T22:56:27.943Z,100.00
2023-04-03T22:58:57.492Z,100.00
2023-04-03T23:01:26.737Z,100.00
2023-04-03T23:03:55.895Z,100.00
2023-04-03T23:06:24.631Z,100.00
2023-04-03T23:08:53.376Z,100.00
2023-04-03T23:11:21.986Z,100.00
2023-04-03T23:13:50.728Z,100.00
2023-04-03T23:16:19.666Z,100.00
2023-04-03T23:18:50.116Z,100.00
2023-04-03T23:21:18.696Z,100.00
2023-04-03T23:23:47.371Z,100.00
2023-04-03T23:26:15.926Z,100.00
2023-04-03T23:28:44.629Z,100.00
2023-04-03T23:31:13.291Z,100.00
2023-04-03T23:33:43.489Z,100.00
2023-04-03T23:36:13.711Z,100.00
2023-04-03T23:38:43.111Z,100.00
2023-04-03T23:41:12.897Z,100.00
2023-04-03T23:43:42.364Z,100.00
2023-04-03T23:46:11.217Z,100.00
2023-04-03T23:48:40.040Z,100.00
2023-04-03T23:51:08.753Z,100.00
2023-04-03T23:53:37.382Z,100.00
2023-04-03T23:56:07.835Z,100.00
2023-04-03T23:58:36.474Z,100.00
